createdAt,value
2018-07-22T00:02:29.257Z,19.00
2018-07-22T00:05:01.256Z,21.00
2018-07-22T00:07:33.028Z,23.20
2018-07-22T00:10:05.213Z,22.60
2018-07-22T00:12:36.864Z,25.00
2018-07-22T00:15:08.651Z,22.60
2018-07-22T00:17:40.336Z,21.80
2018-07-22T00:20:12.269Z,21.80
2018-07-22T00:22:44.029Z,28.00
2018-07-22T00:25:16.148Z,21.40
2018-07-22T00:27:48.486Z,24.40
2018-07-22T00:30:20.335Z,25.80
2018-07-22T00:32:52.175Z,20.40
2018-07-22T00:35:24.079Z,22.80
2018-07-22T00:37:55.699Z,20.00
2018-07-22T00:40:27.607Z,22.20
2018-07-22T00:42:59.564Z,20.00
2018-07-22T00:45:31.488Z,25.00
2018-07-22T00:48:03.451Z,21.20
2018-07-22T00:50:35.279Z,18.80
2018-07-22T00:53:06.804Z,18.20
2018-07-22T00:55:38.763Z,16.60
2018-07-22T00:58:10.557Z,20.20
2018-07-22T01:00:42.571Z,19.20
2018-07-22T01:03:14.159Z,17.00
2018-07-22T01:05:46.186Z,22.40
2018-07-22T01:08:17.990Z,19.00
2018-07-22T01:10:49.811Z,19.60
2018-07-22T01:13:21.482Z,13.20
2018-07-22T01:15:53.347Z,20.40
2018-07-22T01:18:25.080Z,22.20
2018-07-22T01:20:56.849Z,28.20
2018-07-22T01:23:28.791Z,28.60
2018-07-22T01:26:00.476Z,29.00
2018-07-22T01:28:32.307Z,32.60
2018-07-22T01:31:04.123Z,35.60
2018-07-22T01:33:35.727Z,30.80
2018-07-22T01:36:07.629Z,40.80
2018-07-22T01:38:39.854Z,41.00
2018-07-22T01:41:11.712Z,38.20
2018-07-22T01:43:43.606Z,30.00
2018-07-22T01:46:15.407Z,38.60
2018-07-22T01:48:47.657Z,38.80
2018-07-22T01:51:19.452Z,37.80
2018-07-22T01:53:51.362Z,35.00
2018-07-22T01:56:23.250Z,35.40
2018-07-22T01:58:55.118Z,50.20
2018-07-22T02:01:26.907Z,46.40
2018-07-22T02:03:59.069Z,43.40
2018-07-22T02:06:30.887Z,48.80
2018-07-22T02:09:02.992Z,51.80
2018-07-22T02:11:34.778Z,51.00
2018-07-22T02:14:06.962Z,47.60
2018-07-22T02:16:38.769Z,47.40
2018-07-22T02:19:10.555Z,50.80
2018-07-22T02:21:42.200Z,50.80
2018-07-22T02:24:13.744Z,45.40
2018-07-22T02:26:45.607Z,45.40
2018-07-22T02:29:17.272Z,42.80
2018-07-22T02:31:48.969Z,46.20
2018-07-22T02:34:20.818Z,51.60
2018-07-22T02:36:52.560Z,48.80
2018-07-22T02:39:24.407Z,47.60
2018-07-22T02:41:55.996Z,44.60
2018-07-22T02:44:28.122Z,50.60
2018-07-22T02:46:59.705Z,46.60
2018-07-22T02:49:32.264Z,46.00
2018-07-22T02:52:03.922Z,42.60
2018-07-22T02:54:38.134Z,48.60
2018-07-22T02:57:10.687Z,47.00
2018-07-22T02:59:42.137Z,38.20
2018-07-22T03:02:13.963Z,46.00
2018-07-22T03:04:45.412Z,38.80
2018-07-22T03:07:16.963Z,46.40
2018-07-22T03:09:48.827Z,52.20
2018-07-22T03:12:20.545Z,52.40
2018-07-22T03:14:52.384Z,49.20
2018-07-22T03:17:24.045Z,50.60
2018-07-22T03:19:55.845Z,52.20
2018-07-22T03:22:27.560Z,53.40
2018-07-22T03:24:59.396Z,51.60
2018-07-22T03:27:30.979Z,48.00
2018-07-22T03:30:02.685Z,47.00
2018-07-22T03:32:34.591Z,48.20
2018-07-22T03:35:06.505Z,51.60
2018-07-22T03:37:39.125Z,47.20
2018-07-22T03:40:10.952Z,49.20
2018-07-22T03:42:42.510Z,45.60
2018-07-22T03:45:14.578Z,46.20
2018-07-22T03:47:46.160Z,42.80
2018-07-22T03:50:18.523Z,46.60
2018-07-22T03:52:50.234Z,48.00
2018-07-22T03:55:22.124Z,50.20
2018-07-22T03:57:53.902Z,50.60
2018-07-22T04:00:25.652Z,44.20
2018-07-22T04:02:57.053Z,44.40
2018-07-22T04:05:28.913Z,40.20
2018-07-22T04:08:00.644Z,48.00
2018-07-22T04:10:32.520Z,46.80
2018-07-22T04:13:04.325Z,28.40
2018-07-22T04:15:35.842Z,27.20
2018-07-22T04:18:07.728Z,24.40
2018-07-22T04:20:39.303Z,16.40
2018-07-22T04:23:11.188Z,16.60
2018-07-22T04:25:42.837Z,15.40
2018-07-22T04:28:14.903Z,13.00
2018-07-22T04:30:46.357Z,12.00
2018-07-22T04:33:18.175Z,13.80
2018-07-22T04:35:49.725Z,9.40
2018-07-22T04:38:21.400Z,12.00
2018-07-22T04:40:53.177Z,14.00
2018-07-22T04:43:24.991Z,13.80
2018-07-22T04:45:56.703Z,13.80
2018-07-22T04:48:28.320Z,16.80
2018-07-22T04:51:00.667Z,12.40
2018-07-22T04:53:32.483Z,12.60
2018-07-22T04:56:04.780Z,12.60
2018-07-22T04:58:36.324Z,13.20
2018-07-22T05:01:08.258Z,12.40
2018-07-22T05:03:39.925Z,14.00
2018-07-22T05:06:11.727Z,15.20
2018-07-22T05:08:43.536Z,13.20
2018-07-22T05:11:15.332Z,13.40
2018-07-22T05:13:47.336Z,12.00
2018-07-22T05:16:19.188Z,10.40
2018-07-22T05:18:50.893Z,16.80
2018-07-22T05:21:22.672Z,20.00
2018-07-22T05:23:54.352Z,13.40
2018-07-22T05:26:26.272Z,16.20
2018-07-22T05:28:58.158Z,14.20
2018-07-22T05:31:29.894Z,19.80
2018-07-22T05:34:01.628Z,15.80
2018-07-22T05:36:33.748Z,14.20
2018-07-22T05:39:05.725Z,13.60
2018-07-22T05:41:37.396Z,17.40
2018-07-22T05:44:09.166Z,12.80
2018-07-22T05:46:41.141Z,13.20
2018-07-22T05:49:13.068Z,14.80
2018-07-22T05:51:45.156Z,11.40
2018-07-22T05:54:16.935Z,11.20
2018-07-22T05:56:48.671Z,13.00
2018-07-22T05:59:20.554Z,14.40
2018-07-22T06:01:52.487Z,15.40
2018-07-22T06:04:24.184Z,16.00
2018-07-22T06:06:56.132Z,18.20
2018-07-22T06:09:29.969Z,14.20
2018-07-22T06:12:01.882Z,10.80
2018-07-22T06:14:33.487Z,12.20
2018-07-22T06:17:05.162Z,8.00
2018-07-22T06:19:36.904Z,11.80
2018-07-22T06:22:08.886Z,9.60
2018-07-22T06:24:40.470Z,10.00
2018-07-22T06:27:12.650Z,8.80
2018-07-22T06:29:44.735Z,11.60
2018-07-22T06:32:16.402Z,13.40
2018-07-22T06:34:48.075Z,10.80
2018-07-22T06:37:20.035Z,16.60
2018-07-22T06:39:51.829Z,15.40
2018-07-22T06:42:23.534Z,13.40
2018-07-22T06:44:56.240Z,10.80
2018-07-22T06:47:28.260Z,13.80
2018-07-22T06:50:00.114Z,9.40
2018-07-22T06:52:32.210Z,12.40
2018-07-22T06:55:04.016Z,10.20
2018-07-22T06:57:35.950Z,13.40
2018-07-22T07:00:08.068Z,15.60
2018-07-22T07:02:40.056Z,13.80
2018-07-22T07:05:11.899Z,14.20
2018-07-22T07:07:43.816Z,16.00
2018-07-22T07:10:15.643Z,14.40
2018-07-22T07:12:47.950Z,13.80
2018-07-22T07:15:19.735Z,10.40
2018-07-22T07:17:51.806Z,10.00
2018-07-22T07:20:23.700Z,14.40
2018-07-22T07:22:55.546Z,15.20
2018-07-22T07:25:27.463Z,15.60
2018-07-22T07:27:59.198Z,14.80
2018-07-22T07:30:31.399Z,20.40
2018-07-22T07:33:03.314Z,24.80
2018-07-22T07:35:35.097Z,27.80
2018-07-22T07:38:07.123Z,26.80
2018-07-22T07:40:38.987Z,27.00
2018-07-22T07:43:10.559Z,22.80
2018-07-22T07:45:42.308Z,18.40
2018-07-22T07:48:13.978Z,20.40
2018-07-22T07:50:45.860Z,20.40
2018-07-22T07:53:19.217Z,19.20
2018-07-22T07:55:50.986Z,22.20
2018-07-22T07:58:23.021Z,16.40
2018-07-22T08:00:55.137Z,20.20
2018-07-22T08:03:27.400Z,19.60
2018-07-22T08:05:59.345Z,19.00
2018-07-22T08:08:31.865Z,22.40
2018-07-22T08:11:03.740Z,22.60
2018-07-22T08:13:35.875Z,20.00
2018-07-22T08:16:09.224Z,24.80
2018-07-22T08:18:41.408Z,22.60
2018-07-22T08:21:13.102Z,24.60
2018-07-22T08:23:45.259Z,31.60
2018-07-22T08:26:17.145Z,29.80
2018-07-22T08:28:58.555Z,30.00
2018-07-22T08:31:30.619Z,28.40
2018-07-22T08:34:02.433Z,37.00
2018-07-22T08:36:34.349Z,37.00
2018-07-22T08:39:07.689Z,30.80
2018-07-22T08:41:39.848Z,35.00
2018-07-22T08:44:11.949Z,34.40
2018-07-22T08:46:44.150Z,26.60
2018-07-22T08:49:16.017Z,30.20
2018-07-22T08:51:48.131Z,46.40
2018-07-22T08:54:21.195Z,30.40
2018-07-22T08:56:53.013Z,31.80
2018-07-22T08:59:24.868Z,35.20
2018-07-22T09:01:56.916Z,27.40
2018-07-22T09:04:29.125Z,34.00
2018-07-22T09:07:01.413Z,34.20
2018-07-22T09:09:33.845Z,31.80
2018-07-22T09:12:05.757Z,35.20
2018-07-22T09:14:37.806Z,30.80
2018-07-22T09:17:10.036Z,35.60
2018-07-22T09:19:42.244Z,35.00
2018-07-22T09:22:14.311Z,28.60
2018-07-22T09:24:54.072Z,32.00
2018-07-22T09:27:27.326Z,33.00
2018-07-22T09:29:59.930Z,35.60
2018-07-22T09:32:31.787Z,30.40
2018-07-22T09:35:04.955Z,33.60
2018-07-22T09:37:36.896Z,29.20
2018-07-22T09:40:08.758Z,28.00
2018-07-22T09:42:40.638Z,27.80
2018-07-22T09:45:12.430Z,29.00
2018-07-22T09:47:44.280Z,25.40
2018-07-22T09:50:16.309Z,23.80
2018-07-22T09:52:48.556Z,29.20
2018-07-22T09:55:21.980Z,22.00
2018-07-22T09:57:55.120Z,21.60
2018-07-22T10:00:32.259Z,20.40
2018-07-22T10:03:05.283Z,23.20
2018-07-22T10:05:37.822Z,20.60
2018-07-22T10:08:10.078Z,17.00
2018-07-22T10:10:41.903Z,19.20
2018-07-22T10:13:13.928Z,19.40
2018-07-22T10:15:45.764Z,19.00
2018-07-22T10:18:17.551Z,18.40
2018-07-22T10:20:49.455Z,17.00
2018-07-22T10:23:21.115Z,15.00
2018-07-22T10:25:52.697Z,13.20
2018-07-22T10:28:24.745Z,14.00
2018-07-22T10:30:56.535Z,18.80
2018-07-22T10:33:28.795Z,14.20
2018-07-22T10:36:00.884Z,12.00
2018-07-22T10:38:33.869Z,12.00
2018-07-22T10:41:05.771Z,10.00
2018-07-22T10:43:38.148Z,12.20
2018-07-22T10:46:10.234Z,10.00
2018-07-22T10:48:42.399Z,10.60
2018-07-22T10:51:14.740Z,10.00
2018-07-22T10:53:47.802Z,11.20
2018-07-22T10:56:21.012Z,6.20
2018-07-22T10:58:52.942Z,9.60
2018-07-22T11:01:24.731Z,10.00
2018-07-22T11:03:56.385Z,11.80
2018-07-22T11:06:28.276Z,10.00
2018-07-22T11:09:00.330Z,10.60
2018-07-22T11:11:32.212Z,9.00
2018-07-22T11:14:04.040Z,10.00
2018-07-22T11:16:35.916Z,8.60
2018-07-22T11:19:07.523Z,8.80
2018-07-22T11:21:39.495Z,7.80
2018-07-22T11:24:11.405Z,8.80
2018-07-22T11:26:43.096Z,7.60
2018-07-22T11:29:15.300Z,10.60
2018-07-22T11:31:47.211Z,8.20
2018-07-22T11:34:20.015Z,6.60
2018-07-22T11:36:52.039Z,8.80
2018-07-22T11:39:24.589Z,8.20
2018-07-22T11:41:56.238Z,9.40
2018-07-22T11:44:27.738Z,6.60
2018-07-22T11:46:59.772Z,9.00
2018-07-22T11:49:32.287Z,10.00
2018-07-22T11:52:04.842Z,7.60
2018-07-22T12:01:38.567Z,10.00
2018-07-22T12:04:10.650Z,11.00
2018-07-22T12:06:42.515Z,10.20
2018-07-22T12:09:14.445Z,11.00
2018-07-22T12:11:46.899Z,11.00
2018-07-22T12:14:18.805Z,9.00
2018-07-22T12:16:50.665Z,9.00
2018-07-22T12:19:22.463Z,9.60
2018-07-22T12:21:54.345Z,8.80
2018-07-22T12:24:26.181Z,10.60
2018-07-22T12:26:57.835Z,10.00
2018-07-22T12:29:29.659Z,10.00
2018-07-22T12:32:00.916Z,10.80
2018-07-22T12:34:33.129Z,8.40
2018-07-22T12:37:04.692Z,9.40
2018-07-22T12:39:36.615Z,10.00
2018-07-22T12:42:08.342Z,11.40
2018-07-22T12:44:40.196Z,19.20
2018-07-22T12:47:11.958Z,24.60
2018-07-22T12:49:43.746Z,25.20
2018-07-22T12:52:15.661Z,34.00
2018-07-22T12:54:47.361Z,34.20
2018-07-22T12:57:18.660Z,31.80
2018-07-22T12:59:50.336Z,26.60
2018-07-22T13:02:24.534Z,25.40
2018-07-22T13:04:58.685Z,21.40
2018-07-22T13:07:31.256Z,15.80
2018-07-22T13:10:02.986Z,22.40
2018-07-22T13:12:34.865Z,23.40
2018-07-22T13:15:07.227Z,21.80
2018-07-22T13:17:39.154Z,25.60
2018-07-22T13:20:10.714Z,31.00
2018-07-22T13:22:42.590Z,19.80
2018-07-22T13:25:14.472Z,15.00
2018-07-22T13:27:46.369Z,15.40
2018-07-22T13:30:17.905Z,17.80
2018-07-22T13:32:49.863Z,16.80
2018-07-22T13:35:21.680Z,21.60
2018-07-22T13:37:53.581Z,20.00
2018-07-22T13:40:25.410Z,22.60
2018-07-22T13:42:57.527Z,28.40
2018-07-22T13:45:29.439Z,29.60
2018-07-22T13:48:01.271Z,29.00
2018-07-22T13:50:33.091Z,31.20
2018-07-22T13:53:05.322Z,24.40
2018-07-22T13:55:37.945Z,33.00
2018-07-22T13:58:09.839Z,28.00
2018-07-22T14:00:41.760Z,34.20
2018-07-22T14:03:13.922Z,35.80
2018-07-22T14:05:46.445Z,44.20
2018-07-22T14:08:18.329Z,42.40
2018-07-22T14:10:50.257Z,48.00
2018-07-22T14:13:22.019Z,61.60
2018-07-22T14:15:53.844Z,51.00
2018-07-22T14:18:27.051Z,41.80
2018-07-22T14:20:58.789Z,36.00
2018-07-22T14:23:30.606Z,33.80
2018-07-22T14:27:05.206Z,31.00
2018-07-22T14:29:37.124Z,26.40
2018-07-22T14:32:09.118Z,24.40
2018-07-22T14:34:40.949Z,21.40
2018-07-22T14:37:12.921Z,24.60
2018-07-22T14:39:43.530Z,22.60
2018-07-22T14:42:15.419Z,20.20
2018-07-22T14:44:47.153Z,23.80
2018-07-22T14:47:20.351Z,23.60
2018-07-22T14:49:54.281Z,17.20
2018-07-22T14:52:25.942Z,22.00
2018-07-22T14:54:57.824Z,23.60
2018-07-22T14:57:29.910Z,18.00
2018-07-22T15:00:02.039Z,23.00
2018-07-22T15:02:34.152Z,15.40
2018-07-22T15:05:07.301Z,16.80
2018-07-22T15:07:40.478Z,17.40
2018-07-22T15:10:12.541Z,20.60
2018-07-22T15:12:45.554Z,20.00
2018-07-22T15:15:22.134Z,18.20
2018-07-22T15:17:56.270Z,20.20
2018-07-22T15:20:32.376Z,16.80
2018-07-22T15:23:10.377Z,20.40
2018-07-22T15:25:42.261Z,22.20
2018-07-22T15:28:16.330Z,25.00
2018-07-22T15:30:57.445Z,15.80
2018-07-22T15:33:37.534Z,22.60
2018-07-22T15:36:09.152Z,17.60
2018-07-22T15:38:41.907Z,15.40
2018-07-22T15:41:18.195Z,15.40
2018-07-22T15:43:57.048Z,17.60
2018-07-22T15:46:33.456Z,18.60
2018-07-22T15:49:05.787Z,17.20
2018-07-22T15:51:37.700Z,18.20
2018-07-22T15:54:10.707Z,15.40
2018-07-22T15:56:42.597Z,15.00
2018-07-22T15:59:14.270Z,17.00
2018-07-22T16:01:45.981Z,17.40
2018-07-22T16:04:18.043Z,18.20
2018-07-22T16:06:50.004Z,15.40
2018-07-22T16:09:21.911Z,18.40
2018-07-22T16:11:53.551Z,14.40
2018-07-22T16:14:25.456Z,15.00
2018-07-22T16:16:57.280Z,11.20
2018-07-22T16:19:30.091Z,15.60
2018-07-22T16:22:03.421Z,15.40
2018-07-22T16:24:37.349Z,13.60
2018-07-22T16:27:13.161Z,12.40
2018-07-22T16:29:46.614Z,13.40
2018-07-22T16:32:19.172Z,14.60
2018-07-22T16:34:54.406Z,11.60
2018-07-22T16:37:31.106Z,13.00
2018-07-22T16:40:04.953Z,15.00
2018-07-22T16:42:39.093Z,15.40
2018-07-22T16:45:13.065Z,14.80
2018-07-22T16:47:47.345Z,13.20
2018-07-22T16:50:21.246Z,18.40
2018-07-22T16:52:55.273Z,16.20
2018-07-22T16:55:29.497Z,13.00
2018-07-22T16:58:23.131Z,14.00
2018-07-22T17:00:58.317Z,12.20
2018-07-22T17:03:32.171Z,11.00
2018-07-22T17:06:06.968Z,13.00
2018-07-22T17:08:42.169Z,15.40
2018-07-22T17:11:19.012Z,12.80
2018-07-22T17:13:53.957Z,20.80
2018-07-22T17:16:25.865Z,16.00
2018-07-22T17:18:58.020Z,15.20
2018-07-22T17:21:30.044Z,14.60
2018-07-22T17:24:02.192Z,14.80
2018-07-22T17:26:34.091Z,13.00
2018-07-22T17:29:06.532Z,18.20
2018-07-22T17:31:38.613Z,15.00
2018-07-22T17:34:10.197Z,16.60
2018-07-22T17:36:41.985Z,15.80
2018-07-22T17:39:14.012Z,17.40
2018-07-22T17:41:45.904Z,13.40
2018-07-22T17:44:18.306Z,15.80
2018-07-22T17:46:51.075Z,14.60
2018-07-22T17:49:22.846Z,15.80
2018-07-22T17:51:54.741Z,13.40
2018-07-22T17:54:26.585Z,14.60
2018-07-22T17:56:58.216Z,14.40
2018-07-22T17:59:30.555Z,12.60
2018-07-22T18:02:02.629Z,14.40
2018-07-22T18:04:35.258Z,15.40
2018-07-22T18:07:07.090Z,11.80
2018-07-22T18:09:39.214Z,12.40
2018-07-22T18:12:11.330Z,19.60
2018-07-22T18:14:43.322Z,12.20
2018-07-22T18:17:15.187Z,14.80
2018-07-22T18:19:47.212Z,13.40
2018-07-22T18:22:19.119Z,13.20
2018-07-22T18:24:51.128Z,13.40
2018-07-22T18:27:23.013Z,13.20
2018-07-22T18:29:55.059Z,13.20
2018-07-22T18:32:26.960Z,16.00
2018-07-22T18:34:58.983Z,18.80
2018-07-22T18:37:31.142Z,14.40
2018-07-22T18:40:03.087Z,14.80
2018-07-22T18:42:35.075Z,13.20
2018-07-22T18:45:07.406Z,13.20
2018-07-22T18:47:39.435Z,15.40
2018-07-22T18:50:11.515Z,13.60
2018-07-22T18:52:43.300Z,9.60
2018-07-22T18:55:15.197Z,12.00
2018-07-22T18:57:48.177Z,16.20
2018-07-22T19:00:20.030Z,11.80
2018-07-22T19:02:52.250Z,11.60
2018-07-22T19:05:24.373Z,12.40
2018-07-22T19:07:57.108Z,12.60
2018-07-22T19:10:29.007Z,14.80
2018-07-22T19:13:01.101Z,16.00
2018-07-22T19:15:33.187Z,15.60
2018-07-22T19:18:05.013Z,19.40
2018-07-22T19:20:36.875Z,15.60
2018-07-22T19:23:08.798Z,17.80
2018-07-22T19:25:40.562Z,14.80
2018-07-22T19:28:12.384Z,17.00
2018-07-22T19:30:44.323Z,19.60
2018-07-22T19:33:16.660Z,17.00
2018-07-22T19:35:48.605Z,16.80
2018-07-22T19:38:20.299Z,15.20
2018-07-22T19:40:51.940Z,20.00
2018-07-22T19:43:23.816Z,14.00
2018-07-22T19:45:55.629Z,15.60
2018-07-22T19:48:27.577Z,13.40
2018-07-22T19:50:59.425Z,12.80
2018-07-22T19:53:31.449Z,13.80
2018-07-22T19:56:03.522Z,13.00
2018-07-22T19:58:35.611Z,12.60
2018-07-22T20:01:07.435Z,19.60
2018-07-22T20:03:39.363Z,19.00
2018-07-22T20:06:11.449Z,20.40
2018-07-22T20:08:43.023Z,16.40
2018-07-22T20:11:14.722Z,16.20
2018-07-22T20:13:46.546Z,16.40
2018-07-22T20:16:18.324Z,19.00
2018-07-22T20:18:50.297Z,17.00
2018-07-22T20:21:22.131Z,15.40
2018-07-22T20:23:53.758Z,18.00
2018-07-22T20:26:25.632Z,14.80
2018-07-22T20:28:57.300Z,22.00
2018-07-22T20:31:29.181Z,20.00
2018-07-22T20:34:01.213Z,16.40
2018-07-22T20:36:33.053Z,15.00
2018-07-22T20:39:05.752Z,17.40
2018-07-22T20:41:37.552Z,17.60
2018-07-22T20:44:09.012Z,18.40
2018-07-22T20:46:40.806Z,18.00
2018-07-22T20:49:12.279Z,18.60
2018-07-22T20:51:44.111Z,17.60
2018-07-22T20:54:15.753Z,20.60
2018-07-22T20:56:47.570Z,19.20
2018-07-22T20:59:21.309Z,18.00
2018-07-22T21:01:53.126Z,14.00
2018-07-22T21:04:24.728Z,21.40
2018-07-22T21:06:56.471Z,18.80
2018-07-22T21:09:28.210Z,17.00
2018-07-22T21:13:11.869Z,18.20
2018-07-22T21:15:43.907Z,19.20
2018-07-22T21:18:15.570Z,16.80
2018-07-22T21:20:47.437Z,15.60
2018-07-22T21:23:19.019Z,18.00
2018-07-22T21:25:50.819Z,17.60
2018-07-22T21:28:22.571Z,15.20
2018-07-22T21:30:54.514Z,19.40
2018-07-22T21:33:26.345Z,16.00
2018-07-22T21:35:57.971Z,19.80
2018-07-22T21:38:29.786Z,20.40
2018-07-22T21:41:01.688Z,18.00
2018-07-22T21:43:33.272Z,21.20
2018-07-22T21:46:05.194Z,17.60
2018-07-22T21:48:36.680Z,20.00
2018-07-22T21:51:08.535Z,17.80
2018-07-22T21:53:40.023Z,15.40
2018-07-22T21:56:11.701Z,16.20
2018-07-22T21:58:43.640Z,15.20
2018-07-22T22:01:15.423Z,17.00
2018-07-22T22:03:47.534Z,16.80
2018-07-22T22:06:19.379Z,19.40
2018-07-22T22:08:52.298Z,17.00
2018-07-22T22:11:23.916Z,17.20
2018-07-22T22:13:55.755Z,19.60
2018-07-22T22:16:27.406Z,18.00
2018-07-22T22:18:58.908Z,15.60
2018-07-22T22:21:30.785Z,19.60
2018-07-22T22:24:02.471Z,17.60
2018-07-22T22:26:34.274Z,15.00
2018-07-22T22:29:05.973Z,18.40
2018-07-22T22:31:37.958Z,21.20
2018-07-22T22:34:10.092Z,16.40
2018-07-22T22:36:41.749Z,18.20
2018-07-22T22:39:14.618Z,18.00
2018-07-22T22:41:46.521Z,18.80
2018-07-22T22:44:17.931Z,18.40
2018-07-22T22:46:49.891Z,18.20
2018-07-22T22:49:21.753Z,18.40
2018-07-22T22:51:53.735Z,22.80
2018-07-22T22:54:25.418Z,19.00
2018-07-22T22:56:57.364Z,23.20
2018-07-22T22:59:28.897Z,20.40
2018-07-22T23:02:00.855Z,20.60
2018-07-22T23:04:32.683Z,17.20
2018-07-22T23:07:04.495Z,23.20
2018-07-22T23:09:36.597Z,21.40
2018-07-22T23:12:08.131Z,18.80
2018-07-22T23:14:39.656Z,21.00
2018-07-22T23:17:11.343Z,18.80
2018-07-22T23:19:43.122Z,18.60
2018-07-22T23:22:14.956Z,17.80
2018-07-22T23:24:46.552Z,16.00
2018-07-22T23:27:18.268Z,16.60
2018-07-22T23:29:50.085Z,19.60
2018-07-22T23:32:21.720Z,23.40
2018-07-22T23:34:54.763Z,21.00
2018-07-22T23:37:27.271Z,22.60
2018-07-22T23:39:59.324Z,23.20
2018-07-22T23:42:30.857Z,22.80
2018-07-22T23:45:02.704Z,20.80
2018-07-22T23:47:34.383Z,22.40
2018-07-22T23:50:06.370Z,24.40
2018-07-22T23:52:37.946Z,24.60
2018-07-22T23:55:09.747Z,27.00
2018-07-22T23:57:41.339Z,25.00
